Time;durP1;ratioP1;P1;durP2;ratioP2;P2;SDS_P1;SDS_P2;PMS_P1;PMS_P2;Temp;Humidity;BMP_temperature;BMP_pressure;BME280_temperature;BME280_humidity;BME280_pressure;Samples;Min_cycle;Max_cycle;Signal;HPM_P1;HPM_P2
2023/08/27 00:01:49;;;;;;;8.77;6.88;;;18.00;99.90;;;19.70;65.42;97129.00;5027278;28;20046;-47
2023/08/27 00:04:16;;;;;;;8.60;6.57;;;18.10;99.90;;;19.71;65.25;97122.53;5011128;28;20058;-48
2023/08/27 00:06:44;;;;;;;11.02;7.32;;;18.10;99.90;;;19.72;65.20;97124.22;5012084;28;20056;-50
2023/08/27 00:09:11;;;;;;;8.57;7.00;;;18.10;99.90;;;19.72;65.38;97123.41;5012113;28;20045;-46
2023/08/27 00:11:39;;;;;;;10.82;7.70;;;18.00;99.90;;;19.73;65.55;97119.66;5026818;28;20046;-51
2023/08/27 00:14:06;;;;;;;10.43;7.32;;;18.10;99.90;;;19.73;65.33;97108.84;5012197;28;20034;-48
2023/08/27 00:16:36;;;;;;;7.80;6.88;;;18.10;99.90;;;19.75;65.54;97099.44;5012474;28;20426;-49
2023/08/27 00:19:05;;;;;;;8.15;7.05;;;18.10;99.90;;;19.79;65.64;97080.91;5011931;28;20053;-52
2023/08/27 00:21:33;;;;;;;8.63;7.75;;;18.20;99.90;;;19.80;65.39;97085.25;5011584;28;20050;-50
2023/08/27 00:24:00;;;;;;;8.18;6.90;;;18.20;99.90;;;19.82;65.53;97093.94;5011870;28;20057;-49
2023/08/27 00:26:28;;;;;;;9.70;8.45;;;18.20;99.90;;;19.83;65.76;97095.56;5011913;28;20050;-51
2023/08/27 00:28:55;;;;;;;13.95;7.93;;;18.20;99.90;;;19.84;65.63;97100.75;5011887;28;20042;-48
2023/08/27 00:31:23;;;;;;;9.77;8.02;;;18.20;99.90;;;19.82;65.51;97108.25;5026936;28;20060;-45
2023/08/27 00:33:51;;;;;;;9.90;8.82;;;18.20;99.90;;;19.83;65.43;97112.63;5018360;28;20052;-49
2023/08/27 00:36:18;;;;;;;9.60;8.60;;;18.10;99.90;;;19.80;65.58;97121.19;5018945;28;20425;-49
2023/08/27 00:38:46;;;;;;;13.15;9.38;;;18.10;99.90;;;19.75;65.86;97139.94;5018514;28;20042;-52
2023/08/27 00:41:14;;;;;;;11.45;8.82;;;17.90;99.90;;;19.69;65.90;97154.34;5026692;28;20049;-50
2023/08/27 00:43:42;;;;;;;11.63;9.35;;;17.90;99.90;;;19.68;66.07;97158.94;5026820;28;20052;-47
2023/08/27 00:46:10;;;;;;;11.88;8.55;;;17.90;99.90;;;19.68;65.96;97150.84;5026731;28;20141;-47
2023/08/27 00:48:39;;;;;;;10.35;7.72;;;17.90;99.90;;;19.70;65.71;97152.47;5018375;28;20061;-51
2023/08/27 00:51:07;;;;;;;8.65;7.00;;;17.90;99.90;;;19.66;65.68;97157.53;4993856;28;20413;-52
2023/08/27 00:53:35;;;;;;;10.30;6.65;;;17.90;99.90;;;19.56;66.00;97162.66;5017970;28;20053;-47
2023/08/27 00:56:03;;;;;;;11.35;6.90;;;17.80;99.90;;;19.44;66.35;97152.66;5026958;28;20046;-49
2023/08/27 00:58:31;;;;;;;11.23;7.50;;;17.70;99.90;;;19.38;66.54;97142.75;5002274;28;20049;-47
2023/08/27 01:00:59;;;;;;;12.20;7.00;;;17.60;99.90;;;19.36;66.66;97146.75;4993790;28;20413;-48
2023/08/27 01:03:27;;;;;;;8.13;7.22;;;17.60;99.90;;;19.40;66.75;97139.84;5011635;28;20061;-48
2023/08/27 01:05:55;;;;;;;9.15;7.43;;;17.70;99.90;;;19.45;66.68;97134.59;5026131;28;20068;-52
2023/08/27 01:08:53;;;;;;;9.57;7.05;;;17.70;99.90;;;19.50;66.71;97125.78;5026603;28;20061;-47
2023/08/27 01:11:32;;;;;;;7.72;6.88;;;17.80;99.90;;;19.54;66.67;97124.25;5020684;28;20065;-46
2023/08/27 01:14:09;;;;;;;10.35;7.03;;;17.90;99.90;;;19.58;66.73;97131.69;5020046;28;20042;-48
2023/08/27 01:16:38;;;;;;;11.30;7.15;;;17.90;99.90;;;19.60;66.55;97123.34;4994336;28;20046;-48
2023/08/27 01:19:13;;;;;;;12.05;7.10;;;17.90;99.90;;;19.62;66.75;97130.16;4994384;28;20046;-46
2023/08/27 01:21:42;;;;;;;10.80;8.52;;;18.00;99.90;;;19.64;66.55;97122.66;4999851;28;20481;-46
2023/08/27 01:24:10;;;;;;;9.93;7.88;;;18.00;99.90;;;19.65;66.43;97135.09;5018120;28;20042;-47
2023/08/27 01:26:46;;;;;;;10.05;7.20;;;18.00;99.90;;;19.65;66.50;97142.38;5018170;28;20054;-48
2023/08/27 01:29:36;;;;;;;10.90;8.07;;;18.00;99.90;;;19.62;66.25;97150.94;5010338;28;20053;-49
2023/08/27 01:33:00;;;;;;;9.48;7.25;;;18.00;99.90;;;19.60;66.58;97151.19;5019460;28;20407;-51
2023/08/27 01:35:30;;;;;;;10.57;7.88;;;18.00;99.90;;;19.58;66.65;97136.25;5005033;28;20061;-49
2023/08/27 01:37:58;;;;;;;9.07;7.43;;;17.90;99.90;;;19.51;66.49;97133.66;5018698;28;20046;-45
2023/08/27 01:40:29;;;;;;;9.75;7.82;;;17.70;99.90;;;19.39;66.79;97132.81;5009743;28;20042;-47
2023/08/27 01:42:57;;;;;;;9.40;7.88;;;17.60;99.90;;;19.39;66.88;97120.13;5003275;28;20054;-52
2023/08/27 01:45:25;;;;;;;8.77;7.70;;;17.60;99.90;;;19.40;66.97;97104.75;5011189;28;20417;-51
2023/08/27 01:47:52;;;;;;;11.68;7.75;;;17.60;99.90;;;19.41;66.97;97098.31;4993965;28;20418;-49
2023/08/27 01:50:20;;;;;;;10.45;7.68;;;17.70;99.90;;;19.45;67.09;97092.22;5029947;28;20065;-50
2023/08/27 01:52:48;;;;;;;10.05;7.60;;;17.80;99.90;;;19.49;67.32;97079.06;5013592;28;20046;-50
2023/08/27 01:55:15;;;;;;;10.38;8.38;;;17.90;99.90;;;19.48;67.34;97085.50;5014761;28;20050;-49
2023/08/27 01:57:45;;;;;;;12.02;8.82;;;18.00;99.90;;;19.51;67.24;97095.88;5021482;28;20046;-47
2023/08/27 02:00:16;;;;;;;10.50;8.50;;;18.00;99.90;;;19.53;66.98;97109.94;5029927;28;20041;-51
2023/08/27 02:02:46;;;;;;;11.95;8.98;;;17.90;99.90;;;19.46;66.99;97118.16;5012820;28;20057;-46
2023/08/27 02:05:14;;;;;;;11.45;8.50;;;17.80;99.90;;;19.43;66.88;97118.63;5012966;28;20053;-48
2023/08/27 02:07:42;;;;;;;13.10;9.32;;;17.70;99.90;;;19.39;67.21;97120.13;5014244;28;20049;-49
2023/08/27 02:10:10;;;;;;;11.77;9.38;;;17.60;99.90;;;19.38;67.35;97110.38;5009757;28;20054;-51
2023/08/27 02:12:37;;;;;;;9.73;8.20;;;17.60;99.90;;;19.38;67.35;97104.16;5010051;28;20037;-50
2023/08/27 02:15:08;;;;;;;9.70;8.02;;;17.60;99.90;;;19.39;67.54;97108.53;5012925;28;20053;-50
2023/08/27 02:17:37;;;;;;;10.27;8.77;;;17.60;99.90;;;19.39;67.55;97095.03;5020989;28;20053;-46
2023/08/27 02:20:07;;;;;;;12.48;9.65;;;17.60;99.90;;;19.27;67.79;97095.00;5020886;28;20489;-46
2023/08/27 02:22:36;;;;;;;11.95;9.10;;;17.50;99.90;;;19.21;67.90;97087.78;5019930;28;20053;-46
2023/08/27 02:25:06;;;;;;;15.75;10.43;;;17.40;99.90;;;19.16;67.85;97066.09;5029475;28;20046;-51
2023/08/27 02:27:33;;;;;;;10.98;9.45;;;17.30;99.90;;;19.17;68.08;97046.13;5020890;28;20058;-52
2023/08/27 02:30:01;;;;;;;12.35;9.75;;;17.40;99.90;;;19.21;68.31;97050.88;5004680;28;20046;-50
2023/08/27 02:32:29;;;;;;;12.07;10.10;;;17.50;99.90;;;19.23;68.23;97062.25;5012490;28;20054;-47
2023/08/27 02:34:56;;;;;;;11.20;9.00;;;17.50;99.90;;;19.24;68.14;97063.06;5013827;28;20042;-49
2023/08/27 02:37:24;;;;;;;15.38;9.63;;;17.50;99.90;;;19.23;68.25;97064.94;5020566;28;20057;-49
2023/08/27 02:39:52;;;;;;;13.63;10.07;;;17.50;99.90;;;19.27;68.22;97087.72;5020431;28;20065;-49
2023/08/27 02:42:19;;;;;;;11.43;9.32;;;17.50;99.90;;;19.31;68.29;97100.72;5013889;28;20042;-48
2023/08/27 02:44:47;;;;;;;11.60;8.15;;;17.60;99.90;;;19.32;68.14;97115.88;5020764;28;20108;-50
2023/08/27 02:47:16;;;;;;;12.32;10.00;;;17.60;99.90;;;19.32;67.98;97114.00;5013669;28;20045;-46
2023/08/27 02:49:43;;;;;;;10.40;8.35;;;17.60;99.90;;;19.36;68.34;97103.56;5020325;28;20422;-46
2023/08/27 02:52:11;;;;;;;11.75;8.23;;;17.60;99.90;;;19.38;68.15;97086.09;5028842;28;20045;-48
2023/08/27 02:54:38;;;;;;;10.85;8.20;;;17.70;99.90;;;19.43;68.18;97093.50;5013488;28;20053;-46
2023/08/27 02:57:06;;;;;;;11.15;7.80;;;17.80;99.90;;;19.42;68.05;97091.84;5011991;28;20533;-46
2023/08/27 02:59:34;;;;;;;9.45;8.45;;;17.80;99.90;;;19.45;68.07;97103.00;5027406;28;20050;-48
2023/08/27 03:02:01;;;;;;;13.73;8.02;;;17.80;99.90;;;19.44;68.00;97108.63;5003297;28;20053;-48
2023/08/27 03:04:29;;;;;;;11.73;8.00;;;17.80;99.90;;;19.45;68.09;97086.81;5028754;28;20270;-47
2023/08/27 03:06:57;;;;;;;10.23;7.57;;;17.80;99.90;;;19.45;68.22;97089.50;5020163;28;20053;-50
2023/08/27 03:09:24;;;;;;;15.25;8.38;;;17.80;99.90;;;19.48;68.60;97090.91;5013114;28;20046;-50
2023/08/27 03:11:52;;;;;;;9.18;7.90;;;17.80;99.90;;;19.46;68.34;97093.88;5011410;28;20057;-47
2023/08/27 03:14:20;;;;;;;10.07;7.50;;;17.80;99.90;;;19.47;68.67;97083.88;5011722;28;20677;-46
2023/08/27 03:16:47;;;;;;;10.57;8.52;;;17.80;99.90;;;19.47;68.71;97057.72;5028039;28;20050;-46
2023/08/27 03:19:15;;;;;;;11.88;8.85;;;17.80;99.90;;;19.49;68.70;97070.97;5028568;28;20512;-46
2023/08/27 03:21:42;;;;;;;10.82;9.05;;;17.80;99.90;;;19.45;68.86;97075.19;5027872;28;20046;-50
2023/08/27 03:24:12;;;;;;;11.13;9.13;;;17.80;99.90;;;19.43;68.88;97072.72;5019142;28;20049;-50
2023/08/27 03:26:40;;;;;;;15.73;10.32;;;17.70;99.90;;;19.43;69.10;97061.94;5012850;28;20042;-48
2023/08/27 03:29:09;;;;;;;14.50;10.57;;;17.70;99.90;;;19.44;69.00;97062.75;5027450;28;20054;-46
2023/08/27 03:31:36;;;;;;;17.13;10.80;;;17.80;99.90;;;19.42;69.30;97062.97;5027969;28;20054;-49
2023/08/27 03:34:04;;;;;;;13.07;11.35;;;17.70;99.90;;;19.37;69.20;97054.75;5011552;28;20433;-48
2023/08/27 03:36:32;;;;;;;14.45;10.00;;;17.70;99.90;;;19.34;69.19;97063.31;5010785;28;20053;-49
2023/08/27 03:39:00;;;;;;;15.07;10.38;;;17.70;99.90;;;19.35;69.39;97064.13;5027409;28;20042;-47
2023/08/27 03:41:28;;;;;;;16.75;12.05;;;17.70;99.90;;;19.34;69.55;97063.31;5012518;28;20425;-49
2023/08/27 03:43:56;;;;;;;12.85;10.88;;;17.70;99.90;;;19.37;69.48;97067.44;5011302;28;20061;-47
2023/08/27 03:46:23;;;;;;;13.85;11.52;;;17.70;99.90;;;19.38;69.77;97052.88;5019396;28;20053;-50
2023/08/27 03:48:51;;;;;;;14.77;10.27;;;17.70;99.90;;;19.38;69.65;97052.88;5027507;28;20061;-46
2023/08/27 03:51:19;;;;;;;16.10;10.02;;;17.80;99.90;;;19.34;69.59;97041.72;5027522;28;20061;-50
2023/08/27 03:53:47;;;;;;;12.48;10.23;;;17.70;99.90;;;19.34;70.09;97043.59;5027388;28;20046;-51
2023/08/27 03:56:15;;;;;;;12.15;10.68;;;17.80;99.90;;;19.34;69.73;97039.03;5027694;28;20414;-47
2023/08/27 03:58:42;;;;;;;13.77;10.10;;;17.70;99.90;;;19.33;69.70;97036.56;5027191;28;20054;-51
2023/08/27 04:01:10;;;;;;;13.65;11.23;;;17.70;99.90;;;19.35;69.74;97037.13;5011911;28;20042;-47
2023/08/27 04:03:38;;;;;;;13.77;10.63;;;17.70;99.90;;;19.33;69.86;97034.69;5027510;28;20448;-50
2023/08/27 04:06:07;;;;;;;12.60;10.55;;;17.60;99.90;;;19.32;69.83;97041.13;5027351;28;20046;-46
2023/08/27 04:08:34;;;;;;;13.13;10.77;;;17.60;99.90;;;19.33;69.72;97047.34;5026862;28;20520;-46
2023/08/27 04:11:04;;;;;;;14.70;10.82;;;17.60;99.90;;;19.33;69.56;97042.78;5018687;28;20057;-48
2023/08/27 04:13:31;;;;;;;13.68;10.30;;;17.60;99.90;;;19.33;69.80;97053.59;5027061;28;20052;-47
2023/08/27 04:16:06;;;;;;;14.63;11.40;;;17.60;99.90;;;19.33;69.72;97045.50;5010965;28;20421;-46
2023/08/27 04:18:35;;;;;;;13.90;10.60;;;17.60;99.90;;;19.33;69.91;97039.25;5012475;28;20057;-49
2023/08/27 04:21:03;;;;;;;12.77;11.05;;;17.50;99.90;;;19.34;69.89;97032.81;5007755;28;20506;-49
2023/08/27 04:23:33;;;;;;;15.75;11.55;;;17.60;99.90;;;19.35;69.88;97035.28;5017998;28;20235;-46
2023/08/27 04:26:02;;;;;;;16.75;11.95;;;17.60;99.90;;;19.35;69.66;97027.19;5018619;28;20117;-46
2023/08/27 04:28:33;;;;;;;14.65;11.32;;;17.60;99.90;;;19.35;70.04;97021.78;5010527;28;20050;-48
2023/08/27 04:31:01;;;;;;;13.43;10.52;;;17.60;99.90;;;19.36;69.98;97017.22;5010493;28;20050;-46
2023/08/27 04:33:29;;;;;;;14.80;10.48;;;17.60;99.90;;;19.38;70.04;96982.72;5026061;28;20420;-49
2023/08/27 04:35:57;;;;;;;14.90;11.07;;;17.60;99.90;;;19.40;69.95;97015.69;5011904;28;20069;-49
2023/08/27 04:38:24;;;;;;;14.95;11.15;;;17.70;99.90;;;19.39;69.79;97033.75;5010668;28;20042;-46
2023/08/27 04:40:53;;;;;;;11.82;9.05;;;17.60;99.90;;;19.38;69.69;97025.88;5026861;28;20046;-50
2023/08/27 04:43:21;;;;;;;14.48;9.95;;;17.60;99.90;;;19.36;70.11;97025.31;5026868;28;20297;-45
2023/08/27 04:45:48;;;;;;;11.70;9.27;;;17.60;99.90;;;19.37;69.85;97005.38;5026499;28;20437;-48
2023/08/27 04:48:17;;;;;;;13.73;9.93;;;17.60;99.90;;;19.37;69.77;97016.97;5026913;28;20054;-47
2023/08/27 04:50:46;;;;;;;11.60;9.50;;;17.60;99.90;;;19.35;70.17;97019.09;5011362;28;20042;-47
2023/08/27 04:53:17;;;;;;;13.80;9.90;;;17.60;99.90;;;19.34;69.92;97014.72;5011753;28;20049;-45
2023/08/27 04:55:46;;;;;;;14.13;9.98;;;17.50;99.90;;;19.33;70.14;97007.72;5026802;28;20502;-45
2023/08/27 04:58:15;;;;;;;12.75;9.93;;;17.60;99.90;;;19.33;70.02;97015.81;5026689;28;20041;-46
2023/08/27 05:00:43;;;;;;;12.55;9.05;;;17.60;99.90;;;19.30;69.99;97029.75;5026771;28;20050;-47
2023/08/27 05:03:12;;;;;;;11.75;9.38;;;17.50;99.90;;;19.25;70.06;97043.09;5010122;28;20076;-49
2023/08/27 05:05:44;;;;;;;12.30;8.38;;;17.50;99.90;;;19.15;70.57;97040.97;5027063;28;20049;-46
2023/08/27 05:08:11;;;;;;;11.55;8.48;;;17.50;99.90;;;19.19;70.48;97049.44;5026233;28;20080;-49
2023/08/27 05:10:39;;;;;;;11.23;8.30;;;17.50;99.90;;;19.18;70.47;97047.81;5026245;28;20054;-49
2023/08/27 05:13:07;;;;;;;8.57;7.68;;;17.50;99.90;;;19.15;70.72;97043.66;5026461;28;20053;-47
2023/08/27 05:15:34;;;;;;;8.80;6.88;;;17.50;99.90;;;19.06;70.93;97042.38;5018219;28;20049;-49
2023/08/27 05:18:03;;;;;;;8.63;6.40;;;17.40;99.90;;;19.12;70.88;97049.53;5017943;28;20054;-45
2023/08/27 05:20:31;;;;;;;9.80;6.18;;;17.40;99.90;;;19.17;70.78;97051.53;5026427;28;20519;-49
2023/08/27 05:22:58;;;;;;;8.10;5.95;;;17.50;99.90;;;19.20;70.55;97057.28;5007300;28;20430;-49
2023/08/27 05:25:26;;;;;;;8.38;6.05;;;17.50;99.90;;;19.22;70.64;97051.69;5030621;28;20398;-50
2023/08/27 05:27:53;;;;;;;9.82;6.88;;;17.50;99.90;;;19.19;70.43;97047.56;5021964;28;20313;-46
2023/08/27 05:30:22;;;;;;;9.20;6.68;;;17.50;99.90;;;19.18;70.49;97050.50;5030472;28;20056;-51
2023/08/27 05:32:50;;;;;;;8.57;5.72;;;17.50;99.90;;;19.18;70.59;97048.63;5030224;28;20065;-48
2023/08/27 05:35:17;;;;;;;7.78;6.53;;;17.50;99.90;;;19.20;70.78;97049.19;5014063;28;20046;-46
2023/08/27 05:37:46;;;;;;;10.82;6.00;;;17.40;99.90;;;19.20;70.62;97048.38;5030426;28;20046;-47
2023/08/27 05:40:14;;;;;;;7.35;5.35;;;17.50;99.90;;;19.20;70.92;97062.69;5029516;28;20042;-49
2023/08/27 05:42:41;;;;;;;6.63;5.07;;;17.50;99.90;;;19.22;70.77;97057.06;5021603;28;20041;-50
2023/08/27 05:45:09;;;;;;;6.22;4.90;;;17.50;99.90;;;19.23;70.76;97061.41;5013151;28;20049;-47
2023/08/27 05:47:37;;;;;;;6.18;5.07;;;17.50;99.90;;;19.24;70.53;97060.38;5029993;28;20129;-45
2023/08/27 05:50:06;;;;;;;7.88;4.70;;;17.50;99.90;;;19.24;70.87;97053.09;5029828;28;20054;-48
2023/08/27 05:52:33;;;;;;;6.88;5.70;;;17.50;99.90;;;19.29;70.94;97060.50;5013326;28;20054;-50
2023/08/27 05:55:01;;;;;;;7.32;5.18;;;17.60;99.90;;;19.30;70.96;97053.22;5012890;28;20045;-45
2023/08/27 05:57:28;;;;;;;7.50;5.35;;;17.60;99.90;;;19.31;70.61;97050.31;5030246;28;20050;-47
2023/08/27 05:59:57;;;;;;;5.88;5.22;;;17.60;99.90;;;19.33;70.74;97042.78;5014906;28;20042;-46
2023/08/27 06:02:26;;;;;;;8.10;4.90;;;17.60;99.90;;;19.37;70.97;97032.38;5021016;28;20054;-49
2023/08/27 06:04:53;;;;;;;6.28;5.30;;;17.60;99.90;;;19.41;71.02;97033.53;5021476;28;20061;-48
2023/08/27 06:07:21;;;;;;;6.80;5.63;;;17.70;99.90;;;19.46;71.04;97036.34;5021969;28;20049;-47
2023/08/27 06:09:49;;;;;;;6.22;4.50;;;17.70;99.90;;;19.49;70.64;97038.59;5029613;28;20395;-45
2023/08/27 06:12:16;;;;;;;5.72;5.07;;;17.80;99.90;;;19.51;70.71;97032.97;5029511;28;20418;-48
2023/08/27 06:14:44;;;;;;;8.85;5.38;;;17.80;99.90;;;19.54;70.94;97032.47;5021250;28;20480;-49
2023/08/27 06:17:11;;;;;;;5.35;4.80;;;17.90;99.90;;;19.57;70.81;97029.31;5029255;28;20057;-48
2023/08/27 06:19:39;;;;;;;8.23;5.55;;;17.90;99.90;;;19.58;70.98;97015.59;5029268;28;20050;-52
2023/08/27 06:22:16;;;;;;;9.68;6.18;;;17.90;99.90;;;19.61;70.84;97017.81;5029448;28;20524;-48
2023/08/27 06:24:44;;;;;;;5.95;5.40;;;17.90;99.90;;;19.62;71.00;97015.97;5020499;28;20049;-49
2023/08/27 06:27:14;;;;;;;9.18;4.75;;;18.00;99.90;;;19.64;71.00;97006.56;5014128;28;20042;-50
2023/08/27 06:29:45;;;;;;;6.57;5.15;;;17.90;99.90;;;19.66;70.71;97017.13;5021322;28;20055;-49
2023/08/27 06:32:18;;;;;;;6.30;4.85;;;18.00;99.90;;;19.62;70.64;97024.06;5028121;28;20427;-49
2023/08/27 06:34:47;;;;;;;6.13;4.95;;;17.90;99.90;;;19.61;70.21;97030.50;5020561;28;20422;-46
2023/08/27 06:37:15;;;;;;;7.55;4.82;;;17.80;99.90;;;19.60;70.29;97031.53;5028921;28;20057;-45
2023/08/27 06:39:43;;;;;;;7.28;5.93;;;17.80;99.90;;;19.57;70.42;97046.34;5010198;28;20042;-48
2023/08/27 06:42:12;;;;;;;5.75;4.38;;;17.80;99.90;;;19.54;70.27;97037.88;5029435;28;20045;-51
2023/08/27 06:44:40;;;;;;;6.78;4.93;;;17.80;99.90;;;19.51;70.48;97052.69;5020605;28;20045;-45
2023/08/27 06:47:08;;;;;;;7.25;5.68;;;17.70;99.90;;;19.50;70.46;97056.41;5014046;28;20041;-47
2023/08/27 06:49:36;;;;;;;8.95;5.78;;;17.70;99.90;;;19.48;70.18;97058.53;5029203;28;20482;-47
2023/08/27 06:52:06;;;;;;;5.28;4.78;;;17.70;99.90;;;19.45;70.47;97054.41;5028677;28;20038;-46
2023/08/27 06:54:34;;;;;;;7.93;4.60;;;17.70;99.90;;;19.46;70.50;97064.19;5012718;28;20045;-49
2023/08/27 06:57:02;;;;;;;7.32;4.82;;;17.70;99.90;;;19.44;70.49;97071.69;5020589;28;20462;-50
2023/08/27 06:59:29;;;;;;;6.72;4.95;;;17.70;99.90;;;19.48;70.83;97072.03;5013321;28;20041;-50
2023/08/27 07:01:57;;;;;;;8.18;5.28;;;17.70;99.90;;;19.51;70.80;97068.06;5013417;28;20061;-51
2023/08/27 07:04:26;;;;;;;4.50;3.70;;;17.80;99.90;;;19.54;70.50;97064.88;5028416;28;20042;-46
2023/08/27 07:06:53;;;;;;;5.60;3.92;;;17.80;99.90;;;19.58;70.55;97053.41;5020594;28;20050;-46
2023/08/27 07:09:23;;;;;;;5.10;3.95;;;17.90;99.90;;;19.60;70.42;97039.63;5010601;28;20064;-46
2023/08/27 07:11:52;;;;;;;4.57;3.92;;;17.90;99.90;;;19.64;70.11;97036.25;5011959;28;20533;-45
2023/08/27 07:14:19;;;;;;;7.47;3.45;;;17.90;99.90;;;19.65;69.98;97028.97;5002947;28;20057;-47
2023/08/27 07:16:48;;;;;;;5.45;4.13;;;18.00;99.90;;;19.68;70.13;97017.72;5027578;28;20034;-46
2023/08/27 07:19:15;;;;;;;5.38;4.35;;;18.00;99.90;;;19.71;70.20;97011.81;5009240;28;20057;-49
2023/08/27 07:21:43;;;;;;;6.60;4.13;;;18.00;99.90;;;19.75;70.06;97012.22;5002176;28;20049;-49
2023/08/27 07:24:13;;;;;;;4.93;4.00;;;18.10;99.90;;;19.76;70.23;97017.38;5012105;28;20037;-47
2023/08/27 07:26:41;;;;;;;5.50;3.90;;;18.10;99.90;;;19.78;70.40;97019.84;5010639;28;20046;-47
2023/08/27 07:29:09;;;;;;;5.35;4.20;;;18.10;99.90;;;19.83;70.37;97017.25;5008415;28;20046;-46
2023/08/27 07:31:37;;;;;;;4.03;3.30;;;18.20;99.90;;;19.89;70.33;97020.91;5026497;28;20533;-47
2023/08/27 07:34:05;;;;;;;4.57;3.20;;;18.20;99.90;;;19.91;70.04;97022.31;5011822;28;20217;-46
2023/08/27 07:36:32;;;;;;;5.43;3.75;;;18.30;99.90;;;19.95;70.08;97031.59;5025958;28;20046;-46
2023/08/27 07:39:00;;;;;;;4.25;3.72;;;18.30;99.90;;;20.00;69.89;97036.28;5027564;28;20125;-45
2023/08/27 07:41:28;;;;;;;5.25;3.63;;;18.40;99.90;;;20.05;69.48;97033.69;5026250;28;20046;-48
2023/08/27 07:43:56;;;;;;;7.90;4.78;;;18.50;99.90;;;20.08;69.23;97051.31;5018086;28;20387;-48
2023/08/27 07:46:25;;;;;;;4.57;3.40;;;18.50;99.90;;;20.08;69.44;97057.53;5026179;28;20062;-45
2023/08/27 07:48:52;;;;;;;5.88;3.10;;;18.50;99.90;;;20.04;68.76;97073.38;5027002;28;20369;-47
2023/08/27 07:51:20;;;;;;;4.13;3.60;;;18.40;99.90;;;20.06;68.96;97082.09;5026331;28;20069;-45
2023/08/27 07:53:47;;;;;;;6.93;4.30;;;18.40;99.90;;;20.09;69.30;97088.91;5008960;28;20053;-47
2023/08/27 07:56:15;;;;;;;4.72;4.20;;;18.50;99.90;;;20.12;69.35;97091.13;5010535;28;20104;-48
2023/08/27 07:58:43;;;;;;;4.85;3.63;;;18.50;99.90;;;20.14;68.89;97094.44;5026292;28;20038;-48
2023/08/27 08:01:11;;;;;;;7.30;4.10;;;18.50;99.90;;;20.17;69.39;97088.53;5024766;28;20060;-48
2023/08/27 08:03:39;;;;;;;6.07;4.05;;;18.60;99.90;;;20.20;69.04;97082.69;5009343;28;20062;-47
2023/08/27 08:06:07;;;;;;;6.30;3.83;;;18.60;99.90;;;20.19;69.11;97099.94;5010865;28;20445;-48
2023/08/27 08:08:35;;;;;;;5.57;3.95;;;18.50;99.90;;;20.20;68.89;97109.69;5010689;28;20042;-47
2023/08/27 08:11:03;;;;;;;6.93;3.35;;;18.50;99.90;;;20.20;68.64;97123.22;5010014;28;20409;-47
2023/08/27 08:13:32;;;;;;;6.28;3.50;;;18.50;99.90;;;20.22;68.86;97126.50;5008618;28;20045;-49
2023/08/27 08:15:59;;;;;;;4.15;3.50;;;18.60;99.90;;;20.24;68.81;97123.56;5011074;28;20053;-47
2023/08/27 08:18:27;;;;;;;3.95;3.05;;;18.60;99.90;;;20.25;68.50;97128.72;5011339;28;20436;-50
2023/08/27 08:20:56;;;;;;;4.97;3.72;;;18.70;99.90;;;20.32;68.86;97127.78;5011020;28;20482;-46
2023/08/27 08:23:23;;;;;;;4.75;3.25;;;18.70;99.90;;;20.38;68.56;97124.97;5017856;28;20509;-47
2023/08/27 08:25:51;;;;;;;4.45;3.58;;;18.80;99.90;;;20.43;68.44;97118.81;5011000;28;20046;-49
2023/08/27 08:28:19;;;;;;;5.25;4.18;;;18.90;99.90;;;20.46;68.81;97116.47;5011063;28;20046;-46
2023/08/27 08:30:49;;;;;;;3.97;3.28;;;19.00;99.90;;;20.49;67.93;97128.72;5010845;28;20057;-50
2023/08/27 08:33:17;;;;;;;5.22;3.92;;;19.00;99.90;;;20.46;67.71;97135.41;5010597;28;20520;-45
2023/08/27 08:35:46;;;;;;;4.13;3.28;;;18.80;99.90;;;20.45;67.59;97147.28;5026068;28;20053;-45
2023/08/27 08:38:13;;;;;;;7.13;3.13;;;18.80;99.90;;;20.49;67.66;97128.72;5011028;28;20038;-51
2023/08/27 08:40:48;;;;;;;4.60;3.72;;;18.90;99.90;;;20.54;68.23;97119.88;5017372;28;20057;-51
2023/08/27 08:43:37;;;;;;;5.85;4.40;;;19.00;99.90;;;20.52;67.81;97111.19;5001656;28;20053;-50
2023/08/27 08:46:06;;;;;;;5.28;4.75;;;19.00;99.90;;;20.59;67.71;97103.78;5006004;28;20046;-50
2023/08/27 08:48:39;;;;;;;4.70;3.40;;;19.10;99.90;;;20.63;67.98;97094.97;5010003;28;20514;-48
2023/08/27 08:51:11;;;;;;;4.07;3.10;;;19.20;99.90;;;20.69;68.04;97105.91;5009524;28;20053;-49
2023/08/27 08:53:46;;;;;;;9.77;3.85;;;19.30;99.90;;;20.71;67.44;97111.91;5002037;28;20061;-50
2023/08/27 08:56:24;;;;;;;7.70;3.50;;;19.30;99.90;;;20.73;66.98;97118.69;5010157;28;20061;-49
2023/08/27 08:58:58;;;;;;;5.20;3.97;;;19.20;99.90;;;20.69;66.93;97120.25;5008545;28;20034;-52
2023/08/27 09:01:28;;;;;;;7.70;4.03;;;19.10;99.90;;;20.68;67.06;97120.47;5009563;28;20045;-49
2023/08/27 09:03:59;;;;;;;10.00;4.32;;;19.10;99.90;;;20.69;67.05;97120.25;5009730;28;20049;-51
2023/08/27 09:06:27;;;;;;;5.72;3.78;;;19.10;99.90;;;20.74;66.46;97128.44;5009666;28;20046;-49
2023/08/27 09:08:57;;;;;;;6.13;4.00;;;19.10;99.90;;;20.72;67.04;97119.75;4973036;28;1036165;-49
2023/08/27 09:11:26;;;;;;;5.90;3.88;;;19.10;99.90;;;20.69;66.74;97108.59;5010332;28;20517;-50
2023/08/27 09:13:56;;;;;;;7.72;3.65;;;19.10;99.90;;;20.72;67.12;97111.63;5010512;28;20053;-47
2023/08/27 09:16:27;;;;;;;5.10;3.65;;;19.20;99.90;;;20.76;67.13;97112.81;5009470;28;20042;-49
2023/08/27 09:18:54;;;;;;;5.10;3.88;;;19.20;99.90;;;20.74;66.90;97104.09;5010444;28;20049;-50
2023/08/27 09:21:22;;;;;;;6.35;4.45;;;19.20;99.90;;;20.77;66.17;97092.81;5010453;28;20061;-51
2023/08/27 09:23:49;;;;;;;5.82;3.38;;;19.20;99.90;;;20.83;66.67;97093.75;5010488;28;20041;-50
2023/08/27 09:26:20;;;;;;;5.35;4.00;;;19.30;99.90;;;20.85;66.04;97075.38;5010472;28;20061;-50
2023/08/27 09:28:48;;;;;;;5.95;3.33;;;19.30;99.90;;;20.94;66.20;97073.94;5009073;28;20046;-50
2023/08/27 09:31:44;;;;;;;6.47;3.97;;;19.50;99.90;;;21.03;66.30;97068.94;5010170;28;20434;-47
2023/08/27 09:34:14;;;;;;;5.55;4.55;;;19.80;99.90;;;21.17;66.01;97064.06;5010653;28;20053;-52
2023/08/27 09:36:41;;;;;;;5.65;3.75;;;19.90;99.90;;;21.28;66.29;97071.31;5009225;28;20042;-49
2023/08/27 09:39:11;;;;;;;5.90;3.80;;;20.10;99.90;;;21.38;65.67;97076.91;5010224;28;20034;-46
2023/08/27 09:41:47;;;;;;;6.65;4.00;;;20.20;97.70;;;21.45;65.32;97084.91;5010399;28;20060;-50
2023/08/27 09:44:17;;;;;;;3.88;3.45;;;20.20;96.30;;;21.52;64.27;97085.56;5011088;28;20498;-51
2023/08/27 09:46:47;;;;;;;5.00;3.47;;;20.30;94.80;;;21.51;63.62;97081.22;5011016;28;20417;-51
2023/08/27 09:49:15;;;;;;;4.35;3.05;;;20.20;93.20;;;21.54;63.53;97086.16;5001647;28;20050;-49
2023/08/27 09:51:42;;;;;;;6.60;3.67;;;20.10;93.10;;;21.54;62.66;97091.56;5001501;28;20053;-49
2023/08/27 09:54:17;;;;;;;6.82;3.45;;;20.00;92.40;;;21.55;62.73;97082.34;5010876;28;20038;-50
2023/08/27 09:56:50;;;;;;;7.47;3.47;;;20.10;92.50;;;21.58;62.75;97086.47;5003358;28;20406;-49
2023/08/27 09:59:18;;;;;;;4.50;3.00;;;20.00;93.60;;;21.55;63.22;97095.91;4993747;28;20050;-48
2023/08/27 10:01:48;;;;;;;5.15;3.22;;;20.20;93.70;;;21.60;62.70;97100.59;5010456;28;20437;-51
2023/08/27 10:04:17;;;;;;;5.28;3.72;;;20.30;92.90;;;21.65;62.75;97097.13;5010983;28;20061;-52
2023/08/27 10:06:45;;;;;;;6.18;3.40;;;20.30;92.60;;;21.70;62.64;97089.09;5010872;28;20049;-50
2023/08/27 10:09:15;;;;;;;3.47;2.80;;;20.30;91.20;;;21.68;61.61;97085.81;5011024;28;20045;-50
2023/08/27 10:11:45;;;;;;;6.38;3.40;;;20.20;90.60;;;21.73;61.65;97078.59;5011731;28;20429;-47
2023/08/27 10:14:16;;;;;;;3.75;2.63;;;20.30;90.10;;;21.74;61.23;97063.97;5014409;28;20042;-50
2023/08/27 10:16:45;;;;;;;4.45;3.53;;;20.30;90.40;;;21.78;61.57;97070.53;5014215;28;20317;-48
2023/08/27 10:19:14;;;;;;;4.47;3.30;;;20.40;90.70;;;21.85;61.44;97091.22;5012960;28;20048;-47
2023/08/27 10:21:43;;;;;;;4.47;2.83;;;20.40;88.70;;;21.83;60.38;97086.88;5013797;28;20042;-48
2023/08/27 10:24:11;;;;;;;3.53;3.10;;;20.30;86.70;;;21.80;60.67;97081.13;5014118;28;20046;-50